Time;durP1;ratioP1;P1;durP2;ratioP2;P2;SDS_P1;SDS_P2;PMS_P1;PMS_P2;Temp;Humidity;BMP_temperature;BMP_pressure;BME280_temperature;BME280_humidity;BME280_pressure;Samples;Min_cycle;Max_cycle;Signal;HPM_P1;HPM_P2
2022/07/27 00:01:38;;;;;;;11.05;2.90;;;42.60;51.50;;;;;;5054762;28;20035;-64
2022/07/27 00:04:05;;;;;;;15.82;3.17;;;42.40;52.70;;;;;;5071753;28;20028;-64
2022/07/27 00:06:31;;;;;;;19.45;3.03;;;42.80;51.70;;;;;;5053122;28;20021;-66
2022/07/27 00:08:58;;;;;;;14.77;3.28;;;43.10;51.40;;;;;;5053426;28;20093;-67
2022/07/27 00:11:24;;;;;;;17.35;2.92;;;42.40;50.90;;;;;;5037051;28;20058;-66
2022/07/27 00:13:50;;;;;;;14.77;3.20;;;41.60;51.10;;;;;;5051022;28;20503;-65
2022/07/27 00:16:17;;;;;;;17.75;3.33;;;42.20;51.30;;;;;;5052249;28;20112;-67
2022/07/27 00:18:44;;;;;;;15.77;3.47;;;42.90;51.30;;;;;;5053100;28;20032;-67
2022/07/27 00:21:10;;;;;;;32.75;11.98;;;42.80;51.80;;;;;;5072112;28;20025;-64
2022/07/27 00:23:37;;;;;;;14.75;3.75;;;42.30;37.70;;;;;;5052043;28;20035;-64
2022/07/27 00:26:03;;;;;;;12.40;3.13;;;42.20;36.90;;;;;;5042714;28;20100;-65
2022/07/27 00:28:30;;;;;;;18.00;3.20;;;42.20;37.80;;;;;;5076820;28;20054;-64
2022/07/27 00:30:56;;;;;;;16.33;3.67;;;42.10;37.00;;;;;;5070663;28;20057;-64
2022/07/27 00:33:22;;;;;;;13.30;3.20;;;42.10;37.30;;;;;;5052582;28;20111;-65
2022/07/27 00:35:49;;;;;;;12.45;3.05;;;41.60;50.60;;;;;;5051502;28;20500;-65
2022/07/27 00:38:15;;;;;;;15.05;2.75;;;41.80;36.60;;;;;;5051427;28;20479;-65
2022/07/27 00:40:42;;;;;;;15.35;3.28;;;41.90;47.80;;;;;;5069767;28;20046;-65
2022/07/27 00:43:08;;;;;;;13.57;3.50;;;41.90;37.00;;;;;;5051021;28;20058;-65
2022/07/27 00:45:35;;;;;;;16.30;3.28;;;41.90;36.90;;;;;;5051235;28;20130;-66
2022/07/27 00:48:01;;;;;;;10.02;3.15;;;41.80;37.40;;;;;;5050587;28;20037;-67
2022/07/27 00:50:27;;;;;;;18.13;3.08;;;41.70;37.30;;;;;;5051216;28;20039;-66
2022/07/27 00:52:54;;;;;;;17.98;3.53;;;41.60;37.50;;;;;;5068187;28;20131;-66
2022/07/27 00:55:21;;;;;;;9.55;2.63;;;41.60;37.90;;;;;;5068775;28;20056;-65
2022/07/27 00:57:47;;;;;;;18.33;3.58;;;41.50;37.50;;;;;;5050195;28;20093;-66
2022/07/27 01:00:14;;;;;;;21.17;3.55;;;41.50;37.30;;;;;;5049797;28;20169;-66
2022/07/27 01:02:41;;;;;;;12.95;3.08;;;41.40;37.30;;;;;;5068736;28;20060;-66
2022/07/27 01:05:08;;;;;;;13.32;3.85;;;41.40;37.90;;;;;;5068693;28;20074;-66
2022/07/27 01:07:34;;;;;;;11.52;3.25;;;41.20;38.10;;;;;;5052417;28;20150;-66
2022/07/27 01:10:01;;;;;;;10.65;3.08;;;41.20;38.00;;;;;;5052335;28;20533;-63
2022/07/27 01:12:30;;;;;;;15.07;3.78;;;41.10;37.70;;;;;;5049910;28;20079;-64
2022/07/27 01:14:58;;;;;;;17.60;3.17;;;41.10;38.20;;;;;;5052287;28;20067;-66
2022/07/27 01:17:29;;;;;;;17.90;4.07;;;41.00;39.80;;;;;;5050556;28;20037;-65
2022/07/27 01:19:57;;;;;;;14.88;4.00;;;40.90;38.60;;;;;;5050492;28;20405;-66
2022/07/27 01:22:23;;;;;;;12.07;3.67;;;40.80;39.70;;;;;;5052305;28;20049;-66
2022/07/27 01:24:50;;;;;;;18.88;3.90;;;40.70;39.20;;;;;;5052681;28;20045;-66
2022/07/27 01:27:17;;;;;;;17.80;3.72;;;40.70;38.80;;;;;;5052912;28;20067;-65
2022/07/27 01:29:43;;;;;;;24.10;3.88;;;40.60;39.20;;;;;;5051780;28;20370;-63
2022/07/27 01:32:10;;;;;;;21.35;3.83;;;40.50;39.20;;;;;;5052030;28;20054;-68
2022/07/27 01:34:36;;;;;;;15.15;4.22;;;40.30;39.40;;;;;;5073181;28;20055;-65
2022/07/27 01:37:03;;;;;;;12.85;3.15;;;40.20;39.70;;;;;;5054955;28;20148;-65
2022/07/27 01:39:30;;;;;;;17.52;3.88;;;40.10;39.90;;;;;;5036334;28;20387;-67
2022/07/27 01:41:57;;;;;;;14.35;3.95;;;40.10;39.90;;;;;;5051672;28;20522;-65
2022/07/27 01:44:24;;;;;;;23.33;4.05;;;40.00;39.60;;;;;;5050950;28;20155;-68
2022/07/27 01:46:50;;;;;;;24.40;3.33;;;40.00;39.90;;;;;;5052102;28;20076;-69
2022/07/27 01:49:17;;;;;;;20.05;3.13;;;39.90;40.10;;;;;;5052642;28;20064;-66
2022/07/27 01:51:43;;;;;;;16.92;3.47;;;39.80;40.20;;;;;;5053316;28;20071;-65
2022/07/27 01:54:10;;;;;;;19.67;3.70;;;39.70;40.30;;;;;;5050542;28;20166;-66
2022/07/27 01:56:37;;;;;;;22.10;3.97;;;39.60;40.40;;;;;;5050275;28;20084;-66
2022/07/27 01:59:03;;;;;;;15.20;4.00;;;39.50;40.90;;;;;;5047681;28;20088;-66
2022/07/27 02:01:30;;;;;;;21.67;3.50;;;39.50;40.60;;;;;;5048552;28;20127;-66
2022/07/27 02:03:56;;;;;;;22.95;3.28;;;39.40;40.60;;;;;;5065644;28;20097;-66
2022/07/27 02:06:22;;;;;;;20.52;3.38;;;39.30;40.50;;;;;;5048689;28;20079;-66
2022/07/27 02:08:49;;;;;;;16.98;3.20;;;39.60;54.90;;;;;;5051141;28;20134;-67
2022/07/27 02:14:00;;;;;;;20.83;2.58;;;39.00;39.80;;;;;;5067123;28;20044;-66
2022/07/27 02:16:26;;;;;;;21.90;3.80;;;38.90;39.90;;;;;;5049744;28;20031;-66
2022/07/27 02:18:52;;;;;;;22.20;3.95;;;38.40;58.30;;;;;;5068752;28;20513;-65
2022/07/27 02:21:19;;;;;;;18.67;3.90;;;38.50;56.50;;;;;;5053348;28;20484;-66
2022/07/27 02:23:47;;;;;;;23.33;3.72;;;38.80;50.20;;;;;;5051147;28;20520;-67
2022/07/27 02:26:13;;;;;;;18.20;3.47;;;38.50;60.00;;;;;;5050016;28;20029;-65
2022/07/27 02:28:40;;;;;;;18.13;3.22;;;38.30;58.80;;;;;;5068408;28;20017;-66
2022/07/27 02:31:06;;;;;;;12.25;3.05;;;38.20;55.70;;;;;;5050272;28;20056;-65
2022/07/27 02:33:33;;;;;;;22.65;3.90;;;38.40;55.30;;;;;;5050385;28;20528;-66
2022/07/27 02:35:59;;;;;;;26.13;2.95;;;38.10;55.60;;;;;;5050550;28;20141;-66
2022/07/27 02:38:26;;;;;;;26.05;3.83;;;;;;;;;;5049761;28;20094;-67
2022/07/27 02:40:52;;;;;;;14.27;2.90;;;37.90;41.70;;;;;;5069891;28;20038;-67
2022/07/27 02:43:19;;;;;;;25.17;3.55;;;38.30;60.90;;;;;;5050355;28;20070;-67
2022/07/27 02:45:45;;;;;;;30.08;4.18;;;38.00;62.40;;;;;;5068855;28;20089;-65
2022/07/27 02:48:12;;;;;;;23.95;3.35;;;37.60;59.90;;;;;;5054749;28;20023;-64
2022/07/27 02:50:38;;;;;;;15.68;3.45;;;37.80;42.70;;;;;;5051534;28;20084;-66
2022/07/27 02:53:04;;;;;;;16.42;3.50;;;37.90;43.00;;;;;;5068891;28;20478;-66
2022/07/27 02:55:31;;;;;;;27.75;3.42;;;37.80;43.10;;;;;;5051265;28;20091;-64
2022/07/27 02:57:57;;;;;;;14.77;3.08;;;37.80;43.10;;;;;;5053335;28;20074;-65
2022/07/27 03:00:24;;;;;;;23.00;4.07;;;37.90;61.30;;;;;;5031979;28;20044;-65
2022/07/27 03:02:50;;;;;;;19.38;3.67;;;37.30;65.80;;;;;;5048524;28;20066;-66
2022/07/27 03:05:17;;;;;;;26.77;3.90;;;;;;;;;;5050169;28;20554;-65
2022/07/27 03:07:43;;;;;;;18.33;3.13;;;36.90;60.80;;;;;;5050459;28;20037;-66
2022/07/27 03:10:10;;;;;;;19.30;3.28;;;;;;;;;;5049786;28;20034;-65
2022/07/27 03:12:36;;;;;;;24.17;4.72;;;37.30;62.50;;;;;;5054087;28;20027;-65
2022/07/27 03:15:03;;;;;;;35.13;3.58;;;37.30;43.80;;;;;;5032766;28;20497;-65
2022/07/27 03:17:31;;;;;;;26.77;3.40;;;;;;;;;;5050156;28;20072;-66
2022/07/27 03:19:58;;;;;;;29.33;3.67;;;37.60;64.10;;;;;;5050455;28;20125;-66
2022/07/27 03:22:24;;;;;;;28.23;3.42;;;;;;;;;;5066304;28;20139;-67
2022/07/27 03:24:51;;;;;;;33.63;3.60;;;37.10;63.30;;;;;;5048622;28;20044;-66
2022/07/27 03:27:17;;;;;;;27.35;3.92;;;;;;;;;;5048224;28;20062;-68
2022/07/27 03:29:44;;;;;;;17.17;3.08;;;37.20;65.90;;;;;;5050978;28;20036;-66
2022/07/27 03:32:11;;;;;;;26.42;3.72;;;37.20;61.70;;;;;;5067723;28;20116;-66
2022/07/27 03:34:39;;;;;;;27.90;3.60;;;37.00;44.50;;;;;;5028329;28;20505;-64
2022/07/27 03:37:05;;;;;;;38.03;4.45;;;37.00;45.10;;;;;;5029266;28;20036;-64
2022/07/27 03:39:32;;;;;;;21.60;4.63;;;37.00;45.10;;;;;;5028522;28;20071;-65
2022/07/27 03:41:58;;;;;;;30.73;3.60;;;36.90;45.20;;;;;;5029376;28;20395;-65
2022/07/27 03:44:25;;;;;;;18.90;3.13;;;36.90;45.20;;;;;;5028980;28;20119;-65
2022/07/27 03:46:51;;;;;;;36.42;4.85;;;36.80;45.10;;;;;;4998149;28;20517;-65
2022/07/27 03:49:17;;;;;;;27.10;4.78;;;36.80;45.10;;;;;;5030093;28;20521;-66
2022/07/27 03:51:44;;;;;;;36.13;3.95;;;36.70;55.40;;;;;;5029308;28;20081;-65
2022/07/27 03:54:10;;;;;;;28.30;3.65;;;36.80;61.80;;;;;;5031254;28;20049;-65
2022/07/27 03:56:37;;;;;;;25.20;4.18;;;36.70;45.30;;;;;;5047934;28;20062;-66
2022/07/27 03:59:03;;;;;;;32.58;4.68;;;36.70;58.70;;;;;;5029613;28;20075;-65
2022/07/27 04:01:29;;;;;;;36.85;4.85;;;36.70;45.20;;;;;;5009973;28;20463;-65
2022/07/27 04:03:56;;;;;;;32.22;5.00;;;36.70;58.70;;;;;;5028813;28;20228;-65
2022/07/27 04:06:24;;;;;;;28.58;4.85;;;36.70;60.30;;;;;;5030086;28;20084;-66
2022/07/27 04:08:50;;;;;;;37.88;4.63;;;36.40;58.70;;;;;;5047034;28;20049;-65
2022/07/27 04:11:17;;;;;;;35.03;4.90;;;36.60;45.20;;;;;;5030347;28;20086;-66
2022/07/27 04:13:45;;;;;;;33.80;4.80;;;36.60;45.50;;;;;;5029940;28;20087;-65
2022/07/27 04:16:11;;;;;;;31.55;6.00;;;36.20;58.30;;;;;;5047529;28;20606;-65
2022/07/27 04:18:38;;;;;;;33.15;5.07;;;36.50;45.40;;;;;;5047452;28;20416;-65
2022/07/27 04:21:05;;;;;;;28.05;4.88;;;36.30;58.60;;;;;;5029431;28;20514;-64
2022/07/27 04:23:32;;;;;;;31.55;4.63;;;36.40;45.80;;;;;;5029973;28;20101;-64
2022/07/27 04:25:59;;;;;;;30.92;4.15;;;36.40;47.00;;;;;;5029241;28;20178;-64
2022/07/27 04:28:25;;;;;;;22.80;3.78;;;36.30;46.40;;;;;;5029224;28;20077;-65
2022/07/27 04:30:52;;;;;;;18.67;3.53;;;36.30;46.40;;;;;;5029739;28;20051;-66
2022/07/27 04:33:18;;;;;;;26.25;3.92;;;36.30;59.70;;;;;;5014108;28;20101;-64
2022/07/27 04:35:45;;;;;;;20.33;3.95;;;36.10;46.50;;;;;;5031072;28;20394;-65
2022/07/27 04:38:11;;;;;;;21.77;4.32;;;35.80;60.00;;;;;;5050789;28;20059;-65
2022/07/27 04:40:37;;;;;;;23.08;3.85;;;36.00;46.50;;;;;;5017753;28;20422;-66
2022/07/27 04:43:05;;;;;;;22.88;4.18;;;36.00;46.50;;;;;;5032078;28;20080;-65
2022/07/27 04:45:32;;;;;;;23.83;3.28;;;35.60;61.30;;;;;;5033373;28;20141;-66
2022/07/27 04:48:03;;;;;;;19.55;3.40;;;35.40;60.60;;;;;;5033692;28;20054;-64
2022/07/27 04:50:30;;;;;;;27.10;3.95;;;35.70;47.70;;;;;;5033046;28;20063;-65
2022/07/27 04:52:56;;;;;;;17.92;3.40;;;35.60;48.50;;;;;;5033354;28;20526;-65
2022/07/27 04:55:23;;;;;;;21.80;3.85;;;35.60;49.10;;;;;;5051078;28;20120;-65
2022/07/27 04:57:49;;;;;;;15.43;4.47;;;35.50;49.90;;;;;;5031565;28;20178;-66
2022/07/27 05:00:16;;;;;;;25.60;5.22;;;35.40;50.30;;;;;;5033466;28;20071;-64
2022/07/27 05:02:43;;;;;;;16.70;4.53;;;35.40;50.80;;;;;;5030068;28;20811;-66
2022/07/27 05:05:09;;;;;;;29.00;4.97;;;35.40;51.10;;;;;;5032267;28;20076;-64
2022/07/27 05:07:35;;;;;;;19.88;5.60;;;35.20;51.40;;;;;;5049163;28;20166;-64
2022/07/27 05:10:02;;;;;;;16.02;5.25;;;35.20;51.70;;;;;;5051029;28;20080;-64
2022/07/27 05:12:28;;;;;;;27.45;5.45;;;35.20;52.00;;;;;;5033183;28;20518;-66
2022/07/27 05:14:55;;;;;;;26.98;4.80;;;35.10;52.20;;;;;;5049571;28;20129;-66
2022/07/27 05:17:21;;;;;;;25.75;4.22;;;35.00;52.80;;;;;;5033101;28;20436;-64
2022/07/27 05:19:48;;;;;;;21.73;3.88;;;35.00;53.20;;;;;;5031921;28;20499;-64
2022/07/27 05:22:14;;;;;;;20.15;4.85;;;34.90;54.10;;;;;;5032778;28;20104;-65
2022/07/27 05:24:41;;;;;;;25.85;4.40;;;34.80;54.10;;;;;;5032842;28;20093;-64
2022/07/27 05:27:08;;;;;;;27.55;4.20;;;34.80;54.60;;;;;;5016559;28;20090;-65
2022/07/27 05:29:34;;;;;;;15.23;3.65;;;34.70;55.30;;;;;;5032665;28;20452;-65
2022/07/27 05:32:01;;;;;;;19.92;3.95;;;34.60;55.70;;;;;;5030190;28;20074;-64
2022/07/27 05:34:27;;;;;;;21.55;3.72;;;34.60;56.30;;;;;;5031681;28;20087;-64
2022/07/27 05:36:53;;;;;;;18.52;3.22;;;34.50;57.00;;;;;;5049020;28;20069;-65
2022/07/27 05:39:20;;;;;;;19.58;3.67;;;34.50;57.40;;;;;;5029297;28;20101;-66
2022/07/27 05:41:46;;;;;;;12.52;3.38;;;34.50;57.90;;;;;;5031697;28;20080;-68
2022/07/27 05:44:12;;;;;;;13.82;3.25;;;34.40;58.20;;;;;;5030459;28;20112;-67
2022/07/27 05:46:39;;;;;;;16.35;3.78;;;34.40;58.50;;;;;;5048040;28;20586;-66
2022/07/27 05:49:06;;;;;;;18.27;4.05;;;34.30;59.00;;;;;;5031713;28;20157;-67
2022/07/27 05:51:32;;;;;;;14.18;3.83;;;34.20;59.30;;;;;;5049741;28;20462;-65
2022/07/27 05:53:59;;;;;;;17.23;3.50;;;34.20;59.50;;;;;;5031617;28;20074;-67
2022/07/27 05:56:26;;;;;;;22.38;3.65;;;34.20;59.80;;;;;;5050409;28;20068;-66
2022/07/27 05:58:53;;;;;;;26.85;3.60;;;34.20;60.00;;;;;;5030362;28;20117;-65
2022/07/27 06:01:19;;;;;;;17.88;3.33;;;34.00;74.70;;;;;;5047207;28;20586;-65
2022/07/27 06:03:46;;;;;;;20.23;3.95;;;34.10;60.60;;;;;;5024851;28;20127;-64
2022/07/27 06:08:57;;;;;;;14.68;3.08;;;34.10;60.60;;;;;;5045877;28;20638;-66
2022/07/27 06:11:23;;;;;;;16.85;3.47;;;34.10;60.60;;;;;;5048637;28;20103;-66
2022/07/27 06:13:51;;;;;;;15.00;3.63;;;34.10;60.80;;;;;;5030052;28;20085;-66
2022/07/27 06:16:18;;;;;;;16.38;4.00;;;34.30;75.90;;;;;;5031353;28;20076;-65
2022/07/27 06:18:44;;;;;;;11.35;3.28;;;34.10;61.10;;;;;;5031208;28;20104;-66
2022/07/27 06:21:10;;;;;;;18.23;4.38;;;34.10;60.90;;;;;;5015341;28;20088;-66
2022/07/27 06:23:37;;;;;;;22.80;4.50;;;34.00;60.90;;;;;;4998309;28;20152;-67
2022/07/27 06:26:04;;;;;;;20.63;4.10;;;34.00;61.40;;;;;;5029265;28;20095;-65
2022/07/27 06:28:30;;;;;;;20.13;4.60;;;34.00;61.60;;;;;;5045770;28;20080;-66
2022/07/27 06:30:57;;;;;;;18.13;4.22;;;34.00;61.60;;;;;;5048312;28;20067;-65
2022/07/27 06:33:29;;;;;;;20.48;3.60;;;34.00;61.50;;;;;;5029178;28;20589;-65
2022/07/27 06:35:58;;;;;;;18.50;3.47;;;33.90;61.60;;;;;;5029088;28;20195;-65
2022/07/27 06:38:25;;;;;;;12.93;3.70;;;33.90;61.80;;;;;;5014412;28;20489;-64
2022/07/27 06:40:51;;;;;;;14.65;3.10;;;33.90;61.70;;;;;;5015124;28;20126;-65
2022/07/27 06:43:27;;;;;;;14.13;3.20;;;33.90;61.90;;;;;;5030385;28;20091;-64
2022/07/27 06:45:54;;;;;;;20.25;3.53;;;33.90;61.80;;;;;;5014883;28;20441;-66
2022/07/27 06:48:20;;;;;;;14.23;3.55;;;33.80;61.80;;;;;;5014783;28;20074;-68
2022/07/27 06:50:48;;;;;;;15.18;3.78;;;33.80;61.30;;;;;;5029272;28;20154;-65
2022/07/27 06:53:14;;;;;;;18.58;3.28;;;33.70;61.40;;;;;;5031838;28;20100;-66
2022/07/27 06:55:41;;;;;;;22.48;3.70;;;33.70;61.50;;;;;;5029856;28;20415;-66
2022/07/27 06:58:07;;;;;;;19.88;3.42;;;33.60;61.60;;;;;;5029060;28;20131;-65
2022/07/27 07:00:34;;;;;;;21.48;4.22;;;33.60;61.70;;;;;;5029778;28;20530;-66
2022/07/27 07:03:02;;;;;;;16.08;3.55;;;33.60;61.40;;;;;;5027951;28;20098;-65
2022/07/27 07:05:30;;;;;;;21.05;3.78;;;33.60;61.60;;;;;;5026950;28;20480;-66
2022/07/27 07:07:57;;;;;;;19.55;4.10;;;33.60;61.60;;;;;;5029340;28;20124;-65
2022/07/27 07:10:24;;;;;;;27.25;4.22;;;33.50;61.80;;;;;;5046538;28;20080;-66
2022/07/27 07:12:54;;;;;;;25.27;3.95;;;33.50;62.10;;;;;;5030241;28;20524;-65
2022/07/27 07:15:25;;;;;;;16.42;3.67;;;33.40;62.30;;;;;;5048944;28;20063;-66
2022/07/27 07:17:53;;;;;;;14.30;4.03;;;33.40;63.80;;;;;;5014056;28;20540;-66
2022/07/27 07:20:19;;;;;;;15.88;5.03;;;33.30;63.90;;;;;;5047338;28;20068;-65
2022/07/27 07:22:45;;;;;;;19.42;5.95;;;33.30;64.10;;;;;;5021168;28;20092;-66
2022/07/27 07:25:12;;;;;;;31.70;11.00;;;33.30;64.90;;;;;;5046571;28;20110;-65
2022/07/27 07:27:38;;;;;;;23.73;9.10;;;33.30;64.90;;;;;;5029313;28;20070;-66
2022/07/27 07:30:06;;;;;;;19.08;5.03;;;33.20;65.70;;;;;;5046989;28;20127;-67
2022/07/27 07:32:32;;;;;;;12.43;3.72;;;33.30;64.90;;;;;;4997261;28;20115;-66
2022/07/27 07:34:59;;;;;;;9.32;2.78;;;33.90;79.80;;;;;;5029036;28;20076;-65
2022/07/27 07:37:26;;;;;;;21.83;4.22;;;33.30;66.40;;;;;;5045850;28;20158;-65
2022/07/27 07:39:52;;;;;;;15.07;3.78;;;33.20;67.70;;;;;;5029486;28;20838;-65
2022/07/27 07:42:19;;;;;;;11.90;3.63;;;33.10;68.90;;;;;;5045294;28;20071;-66
2022/07/27 07:44:45;;;;;;;11.45;3.20;;;33.00;69.90;;;;;;5047229;28;20143;-64
2022/07/27 07:47:12;;;;;;;14.02;3.45;;;32.90;71.00;;;;;;5027021;28;20436;-66
2022/07/27 07:49:38;;;;;;;9.77;2.80;;;32.90;72.30;;;;;;5046632;28;20154;-66
2022/07/27 07:52:05;;;;;;;13.50;3.88;;;32.90;73.00;;;;;;5029647;28;20088;-65
2022/07/27 07:54:32;;;;;;;16.48;3.97;;;32.70;74.40;;;;;;5028995;28;20075;-66
2022/07/27 07:56:58;;;;;;;12.77;4.85;;;32.70;75.40;;;;;;5028430;28;20175;-65
2022/07/27 07:59:24;;;;;;;20.95;5.28;;;32.50;76.90;;;;;;5029526;28;20069;-65
2022/07/27 08:01:51;;;;;;;18.75;4.00;;;32.50;77.50;;;;;;5029310;28;20456;-64
2022/07/27 08:04:17;;;;;;;11.85;4.20;;;32.50;78.10;;;;;;5044406;28;20100;-63
2022/07/27 08:06:44;;;;;;;16.15;4.55;;;32.40;78.60;;;;;;5026964;28;20083;-65
2022/07/27 08:09:15;;;;;;;15.60;3.50;;;32.50;78.90;;;;;;5012441;28;20131;-66
2022/07/27 08:11:42;;;;;;;11.85;3.20;;;32.30;79.20;;;;;;5034199;28;20074;-66
2022/07/27 08:14:09;;;;;;;13.95;3.90;;;32.20;80.10;;;;;;5032183;28;20068;-66
2022/07/27 08:16:36;;;;;;;15.80;3.97;;;32.20;79.90;;;;;;5032758;28;20183;-66
2022/07/27 08:19:03;;;;;;;18.60;4.32;;;32.20;80.50;;;;;;5032834;28;20565;-66
2022/07/27 08:21:29;;;;;;;17.45;4.25;;;32.00;81.10;;;;;;5050704;28;20457;-65
2022/07/27 08:23:56;;;;;;;16.85;4.15;;;31.90;91.60;;;;;;5034051;28;20167;-66
2022/07/27 08:26:22;;;;;;;19.13;4.63;;;31.90;82.30;;;;;;5049120;28;20098;-65
2022/07/27 08:28:49;;;;;;;24.38;4.35;;;31.90;82.20;;;;;;5051191;28;20113;-66
2022/07/27 08:31:15;;;;;;;12.90;3.45;;;31.90;82.20;;;;;;5051675;28;20180;-67
2022/07/27 08:33:41;;;;;;;18.60;4.20;;;31.90;81.70;;;;;;5033391;28;20544;-66
2022/07/27 08:36:08;;;;;;;17.10;3.75;;;31.90;81.50;;;;;;5032614;28;20183;-66
2022/07/27 08:38:34;;;;;;;17.65;4.40;;;31.80;81.40;;;;;;5031877;28;20154;-66
2022/07/27 08:41:02;;;;;;;23.40;4.50;;;31.70;81.10;;;;;;5050246;28;20072;-66
2022/07/27 08:43:31;;;;;;;19.60;3.83;;;31.70;81.10;;;;;;5050714;28;20097;-66
2022/07/27 08:45:59;;;;;;;17.40;3.75;;;31.70;80.70;;;;;;5051202;28;20077;-66
2022/07/27 08:48:29;;;;;;;18.00;3.88;;;31.70;80.20;;;;;;5016212;28;20206;-66
2022/07/27 08:50:55;;;;;;;12.45;3.08;;;31.70;80.00;;;;;;5032537;28;20087;-66
2022/07/27 08:53:22;;;;;;;12.70;3.47;;;31.70;79.20;;;;;;5034372;28;20083;-65
2022/07/27 08:55:49;;;;;;;11.80;3.65;;;31.80;79.20;;;;;;5049928;28;20110;-65
2022/07/27 08:58:17;;;;;;;13.00;3.05;;;31.70;78.90;;;;;;5031223;28;20109;-66
2022/07/27 09:00:47;;;;;;;15.80;3.40;;;31.80;79.20;;;;;;5032268;28;20472;-66
2022/07/27 09:03:15;;;;;;;14.95;3.00;;;31.70;79.30;;;;;;5033055;28;20485;-68
2022/07/27 09:05:43;;;;;;;11.85;3.13;;;31.70;78.80;;;;;;5014417;28;20126;-66
2022/07/27 09:08:11;;;;;;;11.85;3.00;;;31.70;80.50;;;;;;5013022;28;20489;-66
2022/07/27 09:10:39;;;;;;;15.63;3.67;;;31.70;79.70;;;;;;5048605;28;20747;-67
2022/07/27 09:13:33;;;;;;;14.20;3.72;;;31.80;79.40;;;;;;5032412;28;20077;-65
2022/07/27 09:16:08;;;;;;;12.13;4.00;;;31.80;79.40;;;;;;5016631;28;20069;-66
2022/07/27 09:18:36;;;;;;;13.40;3.70;;;31.70;79.40;;;;;;5048434;28;20521;-67
2022/07/27 09:21:18;;;;;;;18.27;4.20;;;31.70;79.60;;;;;;5050217;28;20078;-67
2022/07/27 09:24:09;;;;;;;15.57;4.40;;;31.60;79.80;;;;;;5052864;28;20092;-65
2022/07/27 09:26:36;;;;;;;37.72;5.80;;;31.50;79.90;;;;;;5034088;28;20084;-66
2022/07/27 09:29:07;;;;;;;32.17;5.32;;;31.60;80.10;;;;;;5046729;28;20587;-67
2022/07/27 09:31:45;;;;;;;15.23;4.63;;;31.60;80.10;;;;;;5031437;28;20069;-66
2022/07/27 09:34:25;;;;;;;15.23;4.38;;;31.60;80.30;;;;;;5025594;28;20104;-67
2022/07/27 09:36:54;;;;;;;12.75;4.30;;;31.60;80.20;;;;;;5023452;28;20555;-67
2022/07/27 09:39:23;;;;;;;13.85;4.05;;;31.60;80.70;;;;;;5026869;28;20094;-66
2022/07/27 09:42:01;;;;;;;11.73;4.55;;;31.60;80.80;;;;;;5024950;28;20171;-65
2022/07/27 09:44:39;;;;;;;15.05;4.50;;;31.50;81.50;;;;;;5023322;28;20119;-65
2022/07/27 09:47:25;;;;;;;17.70;5.10;;;31.50;82.10;;;;;;5027986;28;20072;-66
2022/07/27 09:49:53;;;;;;;16.40;4.80;;;31.50;82.00;;;;;;5024412;28;20092;-65
2022/07/27 09:52:28;;;;;;;14.32;4.60;;;31.50;82.20;;;;;;5043568;28;20099;-66
2022/07/27 09:55:03;;;;;;;14.00;4.77;;;31.60;82.40;;;;;;5024038;28;20111;-67
2022/07/27 09:57:30;;;;;;;13.35;4.03;;;31.50;82.40;;;;;;5043514;28;20318;-67
2022/07/27 10:00:12;;;;;;;17.60;4.78;;;31.50;82.90;;;;;;5047785;28;20085;-65
2022/07/27 10:02:41;;;;;;;15.57;4.07;;;31.70;83.40;;;;;;5042661;28;20069;-66
2022/07/27 10:05:08;;;;;;;18.77;4.43;;;31.50;83.70;;;;;;5025313;28;20082;-65
2022/07/27 10:07:35;;;;;;;17.73;4.13;;;31.40;83.70;;;;;;5014964;28;20165;-66
2022/07/27 10:10:02;;;;;;;19.17;4.18;;;31.40;83.70;;;;;;5019665;28;20077;-66
2022/07/27 10:12:29;;;;;;;18.08;4.05;;;31.40;83.80;;;;;;5023873;28;20536;-67
2022/07/27 10:14:55;;;;;;;14.90;4.50;;;31.40;83.70;;;;;;5025032;28;20105;-66
2022/07/27 10:17:23;;;;;;;14.30;3.92;;;31.50;83.80;;;;;;5025557;28;20073;-67
2022/07/27 10:19:49;;;;;;;17.00;3.83;;;31.40;84.20;;;;;;5024661;28;20097;-67
2022/07/27 10:22:36;;;;;;;12.07;3.92;;;31.30;84.20;;;;;;5042570;28;20093;-66
2022/07/27 10:25:02;;;;;;;19.30;4.63;;;31.30;84.70;;;;;;5028353;28;20100;-67
2022/07/27 10:27:29;;;;;;;14.38;3.97;;;31.40;84.70;;;;;;5045150;28;20151;-68
2022/07/27 10:29:57;;;;;;;21.13;4.43;;;31.30;84.70;;;;;;5027429;28;20563;-66
2022/07/27 10:32:32;;;;;;;16.75;3.85;;;31.20;85.10;;;;;;5027532;28;20118;-67
2022/07/27 10:35:00;;;;;;;15.85;4.20;;;31.20;85.00;;;;;;5025009;28;20132;-66
2022/07/27 10:37:27;;;;;;;22.17;4.43;;;31.20;84.70;;;;;;5007075;28;20726;-67
2022/07/27 10:42:45;;;;;;;13.13;4.05;;;31.20;85.00;;;;;;5005425;28;20544;-65
2022/07/27 10:45:16;;;;;;;22.05;4.60;;;31.20;84.70;;;;;;5024995;28;20072;-66
2022/07/27 10:47:45;;;;;;;13.93;3.83;;;31.20;84.70;;;;;;5025994;28;20510;-66
2022/07/27 10:50:15;;;;;;;16.75;4.30;;;31.20;85.00;;;;;;5011035;28;20070;-67
2022/07/27 10:52:47;;;;;;;12.02;3.67;;;31.20;85.20;;;;;;5042837;28;20101;-66
2022/07/27 10:55:29;;;;;;;16.00;3.70;;;31.20;85.70;;;;;;5020166;28;20167;-66
2022/07/27 10:58:18;;;;;;;14.10;4.00;;;31.20;84.80;;;;;;5026736;28;20131;-66
2022/07/27 11:00:51;;;;;;;13.00;4.05;;;31.20;84.70;;;;;;5010177;28;20524;-66
2022/07/27 11:03:22;;;;;;;16.80;4.28;;;31.20;85.30;;;;;;5024989;28;20106;-65
2022/07/27 11:06:07;;;;;;;13.30;3.90;;;31.10;85.40;;;;;;5022871;28;20082;-66
2022/07/27 11:08:40;;;;;;;9.43;3.33;;;31.10;85.60;;;;;;5002993;28;20071;-65
2022/07/27 11:11:08;;;;;;;15.18;4.25;;;31.20;85.80;;;;;;5009989;28;20082;-66
2022/07/27 11:13:35;;;;;;;15.98;3.75;;;31.10;85.40;;;;;;5023720;28;20567;-68
2022/07/27 11:16:07;;;;;;;12.85;3.45;;;31.20;85.50;;;;;;5022598;28;20089;-67
2022/07/27 11:18:37;;;;;;;19.63;3.97;;;31.20;85.50;;;;;;5042952;28;20578;-65
2022/07/27 11:21:23;;;;;;;12.20;3.70;;;31.20;85.50;;;;;;5042156;28;20459;-67
2022/07/27 11:24:04;;;;;;;15.13;4.00;;;31.20;85.40;;;;;;5024705;28;20143;-66
2022/07/27 11:26:41;;;;;;;18.15;4.03;;;31.10;85.70;;;;;;5026300;28;20090;-64
2022/07/27 11:29:13;;;;;;;13.13;3.72;;;31.10;85.50;;;;;;5026419;28;20089;-65
2022/07/27 11:31:41;;;;;;;17.77;3.80;;;31.10;85.80;;;;;;5023823;28;20081;-65
2022/07/27 11:34:08;;;;;;;12.65;3.03;;;31.10;85.70;;;;;;5040683;28;20459;-68
2022/07/27 11:36:48;;;;;;;14.23;3.60;;;31.20;85.60;;;;;;5025774;28;20073;-65
2022/07/27 11:39:17;;;;;;;14.88;3.50;;;31.20;85.70;;;;;;5022652;28;20159;-66
2022/07/27 11:41:44;;;;;;;12.65;3.58;;;31.10;85.70;;;;;;5040965;28;20164;-66
2022/07/27 11:44:14;;;;;;;16.55;4.10;;;31.10;85.70;;;;;;5027650;28;20100;-67
2022/07/27 11:46:43;;;;;;;15.63;3.80;;;31.00;85.50;;;;;;5042445;28;20097;-66
2022/07/27 11:49:33;;;;;;;15.20;3.67;;;31.10;85.50;;;;;;5021560;28;20104;-66
2022/07/27 11:52:05;;;;;;;16.85;3.83;;;31.10;85.30;;;;;;5025038;28;20176;-66
2022/07/27 11:54:34;;;;;;;17.00;3.28;;;31.00;85.10;;;;;;5024852;28;20077;-67
2022/07/27 11:57:04;;;;;;;15.23;3.08;;;31.10;85.10;;;;;;5023864;28;20101;-67
2022/07/27 11:59:36;;;;;;;12.30;3.58;;;31.10;84.90;;;;;;5022185;28;20570;-66
2022/07/27 12:02:06;;;;;;;12.48;3.50;;;31.10;84.70;;;;;;5020021;28;20481;-66
2022/07/27 12:04:38;;;;;;;12.27;3.30;;;31.00;84.40;;;;;;5044942;28;20085;-66
2022/07/27 12:07:14;;;;;;;15.40;3.33;;;31.00;84.60;;;;;;5007867;28;20074;-65
2022/07/27 12:09:48;;;;;;;;;;;31.00;84.60;;;;;;5030284;28;20072;-66
2022/07/27 12:12:18;;;;;;;12.73;3.35;;;31.00;84.80;;;;;;5022356;28;20411;-68
2022/07/27 12:14:50;;;;;;;15.15;3.60;;;31.00;84.70;;;;;;5040249;28;20129;-66
2022/07/27 12:17:31;;;;;;;16.35;3.65;;;31.00;84.70;;;;;;5024166;28;20094;-65
2022/07/27 12:20:06;;;;;;;12.30;3.65;;;31.10;84.70;;;;;;5007108;28;20084;-66
2022/07/27 12:22:39;;;;;;;12.57;3.80;;;31.00;84.70;;;;;;5022214;28;20077;-66
2022/07/27 12:25:23;;;;;;;14.75;3.67;;;31.10;84.80;;;;;;5024315;28;20750;-66
2022/07/27 12:27:56;;;;;;;17.92;4.05;;;31.10;84.80;;;;;;5024997;28;20123;-67
2022/07/27 12:30:31;;;;;;;15.80;4.28;;;31.10;85.10;;;;;;5026169;28;20120;-66
2022/07/27 12:32:57;;;;;;;14.73;4.18;;;31.10;85.20;;;;;;5026171;28;20113;-67
2022/07/27 12:35:27;;;;;;;12.18;3.75;;;31.00;85.20;;;;;;5021651;28;20078;-67
2022/07/27 12:38:02;;;;;;;17.05;3.65;;;31.00;85.20;;;;;;5022937;28;20495;-65
2022/07/27 12:40:30;;;;;;;18.83;3.90;;;31.00;85.50;;;;;;5042297;28;20434;-66
2022/07/27 12:42:59;;;;;;;17.65;4.20;;;31.00;85.80;;;;;;5023357;28;20066;-66
2022/07/27 12:45:32;;;;;;;13.98;3.85;;;30.90;85.90;;;;;;5043554;28;20093;-66
2022/07/27 12:48:28;;;;;;;25.65;6.22;;;30.80;86.30;;;;;;5022762;28;20071;-66
2022/07/27 12:51:01;;;;;;;29.40;11.63;;;30.80;86.60;;;;;;4996347;28;20164;-66
2022/07/27 12:53:29;;;;;;;47.17;21.45;;;30.90;86.50;;;;;;5009416;28;20086;-69